sensor_id;sensor_type;location;lat;lon;timestamp;P1;durP1;ratioP1;P2;durP2;ratioP2
35899;SDS011;21998;44.112;12.318;2022-07-29T07:11:42;12.52;;;5.95;;
35899;SDS011;21998;44.112;12.318;2022-07-29T07:14:08;12.27;;;5.25;;
35899;SDS011;21998;44.112;12.318;2022-07-29T07:16:33;16.73;;;5.18;;
35899;SDS011;21998;44.112;12.318;2022-07-29T07:19:00;11.95;;;5.00;;
35899;SDS011;21998;44.112;12.318;2022-07-29T07:42:58;10.02;;;4.88;;
35899;SDS011;21998;44.112;12.318;2022-07-29T07:45:23;15.98;;;5.38;;
35899;SDS011;21998;44.112;12.318;2022-07-29T07:47:49;13.23;;;5.80;;
35899;SDS011;21998;44.112;12.318;2022-07-29T07:50:15;20.60;;;5.47;;
35899;SDS011;21998;44.112;12.318;2022-07-29T08:10:18;12.00;;;5.20;;
35899;SDS011;21998;44.112;12.318;2022-07-29T08:13:03;17.70;;;4.93;;
35899;SDS011;21998;44.112;12.318;2022-07-29T08:15:30;9.95;;;5.03;;
35899;SDS011;21998;44.112;12.318;2022-07-29T08:17:55;8.23;;;4.70;;
35899;SDS011;21998;44.112;12.318;2022-07-29T08:32:05;6.78;;;3.95;;
35899;SDS011;21998;44.112;12.318;2022-07-29T08:34:32;14.02;;;4.72;;
35899;SDS011;21998;44.112;12.318;2022-07-29T08:36:57;9.23;;;4.72;;
35899;SDS011;21998;44.112;12.318;2022-07-29T08:39:23;6.93;;;4.57;;
35899;SDS011;21998;44.112;12.318;2022-07-29T08:41:50;11.57;;;4.32;;
35899;SDS011;21998;44.112;12.318;2022-07-29T08:47:49;11.35;;;4.55;;
35899;SDS011;21998;44.112;12.318;2022-07-29T08:50:15;8.60;;;4.65;;
35899;SDS011;21998;44.112;12.318;2022-07-29T08:52:41;13.90;;;4.25;;
35899;SDS011;21998;44.112;12.318;2022-07-29T08:55:08;7.00;;;3.97;;
35899;SDS011;21998;44.112;12.318;2022-07-29T08:57:34;7.90;;;4.38;;
35899;SDS011;21998;44.112;12.318;2022-07-29T09:00:01;10.35;;;4.90;;
35899;SDS011;21998;44.112;12.318;2022-07-29T09:02:32;9.88;;;4.53;;
35899;SDS011;21998;44.112;12.318;2022-07-29T09:05:04;12.23;;;4.07;;
35899;SDS011;21998;44.112;12.318;2022-07-29T09:07:30;10.13;;;4.22;;
35899;SDS011;21998;44.112;12.318;2022-07-29T09:09:57;7.18;;;3.78;;
35899;SDS011;21998;44.112;12.318;2022-07-29T09:12:24;8.90;;;4.57;;
35899;SDS011;21998;44.112;12.318;2022-07-29T09:14:51;13.00;;;4.07;;
35899;SDS011;21998;44.112;12.318;2022-07-29T09:17:17;6.88;;;3.97;;
35899;SDS011;21998;44.112;12.318;2022-07-29T09:19:44;9.93;;;4.43;;
35899;SDS011;21998;44.112;12.318;2022-07-29T09:22:10;7.53;;;4.15;;
35899;SDS011;21998;44.112;12.318;2022-07-29T09:24:41;10.43;;;4.03;;
35899;SDS011;21998;44.112;12.318;2022-07-29T09:29:45;10.38;;;3.95;;
35899;SDS011;21998;44.112;12.318;2022-07-29T09:32:10;9.27;;;3.55;;
35899;SDS011;21998;44.112;12.318;2022-07-29T09:34:37;8.43;;;3.88;;
35899;SDS011;21998;44.112;12.318;2022-07-29T09:37:03;6.78;;;3.40;;
35899;SDS011;21998;44.112;12.318;2022-07-29T09:39:31;5.18;;;3.72;;
35899;SDS011;21998;44.112;12.318;2022-07-29T09:42:03;10.80;;;4.13;;
35899;SDS011;21998;44.112;12.318;2022-07-29T09:44:48;9.05;;;4.07;;
35899;SDS011;21998;44.112;12.318;2022-07-29T09:47:15;6.88;;;3.88;;
35899;SDS011;21998;44.112;12.318;2022-07-29T09:49:56;6.65;;;3.88;;
35899;SDS011;21998;44.112;12.318;2022-07-29T09:52:23;9.00;;;4.35;;
35899;SDS011;21998;44.112;12.318;2022-07-29T09:54:50;10.35;;;3.97;;
35899;SDS011;21998;44.112;12.318;2022-07-29T09:57:23;10.93;;;3.53;;
35899;SDS011;21998;44.112;12.318;2022-07-29T10:02:32;5.32;;;3.63;;
35899;SDS011;21998;44.112;12.318;2022-07-29T10:05:00;9.05;;;3.60;;
35899;SDS011;21998;44.112;12.318;2022-07-29T10:07:49;7.65;;;3.65;;
35899;SDS011;21998;44.112;12.318;2022-07-29T10:10:19;9.50;;;3.55;;
35899;SDS011;21998;44.112;12.318;2022-07-29T10:15:23;8.50;;;3.67;;
35899;SDS011;21998;44.112;12.318;2022-07-29T10:17:50;7.13;;;3.97;;
35899;SDS011;21998;44.112;12.318;2022-07-29T10:20:17;8.00;;;3.53;;
35899;SDS011;21998;44.112;12.318;2022-07-29T10:22:43;8.77;;;3.80;;
35899;SDS011;21998;44.112;12.318;2022-07-29T10:25:12;5.05;;;3.67;;
35899;SDS011;21998;44.112;12.318;2022-07-29T10:27:37;6.97;;;3.50;;
35899;SDS011;21998;44.112;12.318;2022-07-29T10:30:05;9.55;;;4.22;;
35899;SDS011;21998;44.112;12.318;2022-07-29T10:32:46;8.48;;;3.75;;
35899;SDS011;21998;44.112;12.318;2022-07-29T10:38:26;6.75;;;4.10;;
35899;SDS011;21998;44.112;12.318;2022-07-29T10:46:26;8.32;;;4.18;;
35899;SDS011;21998;44.112;12.318;2022-07-29T10:49:05;13.57;;;3.80;;
35899;SDS011;21998;44.112;12.318;2022-07-29T10:51:52;9.25;;;4.07;;
35899;SDS011;21998;44.112;12.318;2022-07-29T10:55:05;6.95;;;4.10;;
35899;SDS011;21998;44.112;12.318;2022-07-29T10:59:47;7.22;;;4.20;;
35899;SDS011;21998;44.112;12.318;2022-07-29T11:05:07;7.18;;;4.38;;
35899;SDS011;21998;44.112;12.318;2022-07-29T11:07:34;6.03;;;4.10;;
35899;SDS011;21998;44.112;12.318;2022-07-29T11:10:20;6.75;;;3.53;;
35899;SDS011;21998;44.112;12.318;2022-07-29T11:12:47;9.27;;;3.85;;
35899;SDS011;21998;44.112;12.318;2022-07-29T11:15:13;5.82;;;3.72;;
35899;SDS011;21998;44.112;12.318;2022-07-29T11:20:36;10.88;;;4.43;;
35899;SDS011;21998;44.112;12.318;2022-07-29T11:31:37;10.82;;;3.58;;
35899;SDS011;21998;44.112;12.318;2022-07-29T11:34:19;7.43;;;4.13;;
35899;SDS011;21998;44.112;12.318;2022-07-29T11:39:34;7.50;;;4.03;;
35899;SDS011;21998;44.112;12.318;2022-07-29T11:44:59;13.60;;;4.32;;
35899;SDS011;21998;44.112;12.318;2022-07-29T11:47:38;13.18;;;3.55;;
35899;SDS011;21998;44.112;12.318;2022-07-29T11:50:12;9.50;;;3.63;;
35899;SDS011;21998;44.112;12.318;2022-07-29T11:52:43;5.97;;;3.60;;
35899;SDS011;21998;44.112;12.318;2022-07-29T11:55:18;10.25;;;3.90;;
35899;SDS011;21998;44.112;12.318;2022-07-29T11:57:57;7.22;;;3.75;;
35899;SDS011;21998;44.112;12.318;2022-07-29T12:00:32;14.23;;;3.78;;
35899;SDS011;21998;44.112;12.318;2022-07-29T12:03:07;14.20;;;3.60;;
35899;SDS011;21998;44.112;12.318;2022-07-29T12:05:42;8.45;;;3.40;;
35899;SDS011;21998;44.112;12.318;2022-07-29T12:08:11;8.82;;;3.17;;
35899;SDS011;21998;44.112;12.318;2022-07-29T12:10:39;7.03;;;3.17;;
35899;SDS011;21998;44.112;12.318;2022-07-29T12:13:06;5.35;;;3.42;;
35899;SDS011;21998;44.112;12.318;2022-07-29T12:15:32;5.72;;;3.75;;
35899;SDS011;21998;44.112;12.318;2022-07-29T12:18:08;6.25;;;3.30;;
35899;SDS011;21998;44.112;12.318;2022-07-29T12:20:38;7.28;;;3.45;;
35899;SDS011;21998;44.112;12.318;2022-07-29T12:23:05;9.13;;;3.40;;
35899;SDS011;21998;44.112;12.318;2022-07-29T12:25:34;10.55;;;3.00;;
35899;SDS011;21998;44.112;12.318;2022-07-29T12:28:03;7.38;;;3.38;;
35899;SDS011;21998;44.112;12.318;2022-07-29T12:30:37;7.85;;;3.38;;
35899;SDS011;21998;44.112;12.318;2022-07-29T12:33:15;13.02;;;3.38;;
35899;SDS011;21998;44.112;12.318;2022-07-29T12:35:53;9.00;;;3.97;;
35899;SDS011;21998;44.112;12.318;2022-07-29T12:38:24;5.47;;;3.15;;
35899;SDS011;21998;44.112;12.318;2022-07-29T12:40:51;7.88;;;3.28;;
35899;SDS011;21998;44.112;12.318;2022-07-29T12:43:22;6.70;;;3.15;;
35899;SDS011;21998;44.112;12.318;2022-07-29T12:45:53;6.53;;;3.38;;
35899;SDS011;21998;44.112;12.318;2022-07-29T12:48:36;4.65;;;3.03;;
35899;SDS011;21998;44.112;12.318;2022-07-29T12:51:04;5.20;;;2.88;;
35899;SDS011;21998;44.112;12.318;2022-07-29T12:53:32;5.32;;;2.88;;
35899;SDS011;21998;44.112;12.318;2022-07-29T12:55:59;8.85;;;3.15;;
35899;SDS011;21998;44.112;12.318;2022-07-29T12:58:38;6.97;;;3.42;;
35899;SDS011;21998;44.112;12.318;2022-07-29T13:01:08;7.95;;;2.95;;
35899;SDS011;21998;44.112;12.318;2022-07-29T13:03:47;5.50;;;3.28;;
35899;SDS011;21998;44.112;12.318;2022-07-29T13:06:31;5.00;;;3.00;;
35899;SDS011;21998;44.112;12.318;2022-07-29T13:09:04;5.18;;;3.05;;
35899;SDS011;21998;44.112;12.318;2022-07-29T13:11:43;5.47;;;2.80;;
35899;SDS011;21998;44.112;12.318;2022-07-29T13:14:14;10.82;;;3.05;;
35899;SDS011;21998;44.112;12.318;2022-07-29T13:19:35;6.30;;;2.78;;
35899;SDS011;21998;44.112;12.318;2022-07-29T13:22:02;5.38;;;2.75;;
35899;SDS011;21998;44.112;12.318;2022-07-29T13:24:29;8.02;;;3.25;;
35899;SDS011;21998;44.112;12.318;2022-07-29T13:26:55;9.15;;;2.80;;
35899;SDS011;21998;44.112;12.318;2022-07-29T13:29:21;8.18;;;3.28;;
35899;SDS011;21998;44.112;12.318;2022-07-29T13:31:47;3.92;;;2.63;;
35899;SDS011;21998;44.112;12.318;2022-07-29T13:34:13;7.45;;;3.22;;
35899;SDS011;21998;44.112;12.318;2022-07-29T13:36:39;11.75;;;3.40;;
35899;SDS011;21998;44.112;12.318;2022-07-29T13:39:05;7.22;;;3.20;;
35899;SDS011;21998;44.112;12.318;2022-07-29T13:41:31;17.55;;;3.10;;
35899;SDS011;21998;44.112;12.318;2022-07-29T13:43:57;12.65;;;3.45;;
35899;SDS011;21998;44.112;12.318;2022-07-29T13:46:22;22.92;;;4.38;;
35899;SDS011;21998;44.112;12.318;2022-07-29T13:48:48;63.15;;;7.40;;
35899;SDS011;21998;44.112;12.318;2022-07-29T13:51:14;26.23;;;5.97;;
35899;SDS011;21998;44.112;12.318;2022-07-29T13:53:39;17.55;;;4.00;;
35899;SDS011;21998;44.112;12.318;2022-07-29T13:56:05;30.23;;;5.00;;
35899;SDS011;21998;44.112;12.318;2022-07-29T13:58:31;19.77;;;5.88;;
35899;SDS011;21998;44.112;12.318;2022-07-29T14:00:58;20.90;;;7.10;;
35899;SDS011;21998;44.112;12.318;2022-07-29T14:03:24;19.65;;;6.65;;
35899;SDS011;21998;44.112;12.318;2022-07-29T14:05:50;15.88;;;6.30;;
35899;SDS011;21998;44.112;12.318;2022-07-29T14:08:16;26.77;;;7.68;;
35899;SDS011;21998;44.112;12.318;2022-07-29T14:10:42;20.83;;;7.78;;
35899;SDS011;21998;44.112;12.318;2022-07-29T14:13:08;27.15;;;10.88;;
35899;SDS011;21998;44.112;12.318;2022-07-29T14:15:34;16.13;;;6.80;;
35899;SDS011;21998;44.112;12.318;2022-07-29T14:18:00;15.07;;;7.57;;
35899;SDS011;21998;44.112;12.318;2022-07-29T14:20:26;15.85;;;5.72;;
35899;SDS011;21998;44.112;12.318;2022-07-29T14:22:54;15.38;;;6.38;;
35899;SDS011;21998;44.112;12.318;2022-07-29T14:25:21;15.95;;;7.28;;
35899;SDS011;21998;44.112;12.318;2022-07-29T14:27:47;11.18;;;5.95;;
35899;SDS011;21998;44.112;12.318;2022-07-29T14:30:13;7.07;;;4.55;;
35899;SDS011;21998;44.112;12.318;2022-07-29T14:32:39;8.48;;;5.00;;
35899;SDS011;21998;44.112;12.318;2022-07-29T14:35:05;10.70;;;5.38;;
35899;SDS011;21998;44.112;12.318;2022-07-29T14:37:33;8.00;;;5.00;;
35899;SDS011;21998;44.112;12.318;2022-07-29T14:39:59;16.60;;;5.75;;
35899;SDS011;21998;44.112;12.318;2022-07-29T14:42:28;9.68;;;5.03;;
35899;SDS011;21998;44.112;12.318;2022-07-29T14:44:53;8.15;;;4.55;;
35899;SDS011;21998;44.112;12.318;2022-07-29T14:47:19;10.10;;;4.95;;
35899;SDS011;21998;44.112;12.318;2022-07-29T14:49:46;9.93;;;4.55;;
35899;SDS011;21998;44.112;12.318;2022-07-29T14:52:12;6.55;;;4.07;;
35899;SDS011;21998;44.112;12.318;2022-07-29T14:54:38;13.88;;;4.55;;
35899;SDS011;21998;44.112;12.318;2022-07-29T14:57:03;9.77;;;4.40;;
35899;SDS011;21998;44.112;12.318;2022-07-29T14:59:30;9.30;;;3.83;;
35899;SDS011;21998;44.112;12.318;2022-07-29T15:01:56;5.30;;;3.40;;
35899;SDS011;21998;44.112;12.318;2022-07-29T15:04:22;7.18;;;3.50;;
35899;SDS011;21998;44.112;12.318;2022-07-29T15:06:48;6.07;;;3.30;;
35899;SDS011;21998;44.112;12.318;2022-07-29T15:09:14;8.50;;;3.63;;
35899;SDS011;21998;44.112;12.318;2022-07-29T15:11:39;6.97;;;3.60;;
35899;SDS011;21998;44.112;12.318;2022-07-29T15:14:06;8.88;;;4.18;;
35899;SDS011;21998;44.112;12.318;2022-07-29T15:16:32;6.57;;;3.58;;
35899;SDS011;21998;44.112;12.318;2022-07-29T15:19:01;7.47;;;4.22;;
35899;SDS011;21998;44.112;12.318;2022-07-29T15:21:27;11.40;;;4.30;;
35899;SDS011;21998;44.112;12.318;2022-07-29T15:23:52;8.43;;;3.40;;
35899;SDS011;21998;44.112;12.318;2022-07-29T15:26:18;6.38;;;3.65;;
35899;SDS011;21998;44.112;12.318;2022-07-29T15:28:45;8.32;;;3.95;;
35899;SDS011;21998;44.112;12.318;2022-07-29T15:31:10;10.20;;;3.78;;
35899;SDS011;21998;44.112;12.318;2022-07-29T15:33:36;7.50;;;3.50;;
35899;SDS011;21998;44.112;12.318;2022-07-29T15:36:02;12.00;;;4.30;;
35899;SDS011;21998;44.112;12.318;2022-07-29T15:38:29;6.97;;;3.72;;
35899;SDS011;21998;44.112;12.318;2022-07-29T15:40:55;7.60;;;3.50;;
35899;SDS011;21998;44.112;12.318;2022-07-29T15:43:22;4.50;;;3.28;;
35899;SDS011;21998;44.112;12.318;2022-07-29T15:45:48;4.90;;;2.70;;
35899;SDS011;21998;44.112;12.318;2022-07-29T15:48:35;9.23;;;3.65;;
35899;SDS011;21998;44.112;12.318;2022-07-29T15:51:04;6.30;;;3.35;;
35899;SDS011;21998;44.112;12.318;2022-07-29T15:53:30;5.72;;;3.40;;
35899;SDS011;21998;44.112;12.318;2022-07-29T15:55:56;6.57;;;3.40;;
35899;SDS011;21998;44.112;12.318;2022-07-29T15:58:22;6.20;;;3.22;;
35899;SDS011;21998;44.112;12.318;2022-07-29T16:00:48;5.72;;;2.97;;
35899;SDS011;21998;44.112;12.318;2022-07-29T16:03:14;7.32;;;3.30;;
35899;SDS011;21998;44.112;12.318;2022-07-29T16:05:40;7.28;;;3.33;;
35899;SDS011;21998;44.112;12.318;2022-07-29T16:08:06;9.73;;;3.05;;
35899;SDS011;21998;44.112;12.318;2022-07-29T16:10:33;5.47;;;2.83;;
35899;SDS011;21998;44.112;12.318;2022-07-29T16:12:58;12.35;;;3.15;;
35899;SDS011;21998;44.112;12.318;2022-07-29T16:15:24;8.05;;;3.40;;
35899;SDS011;21998;44.112;12.318;2022-07-29T16:17:50;5.45;;;3.15;;
35899;SDS011;21998;44.112;12.318;2022-07-29T16:20:16;6.88;;;3.03;;
35899;SDS011;21998;44.112;12.318;2022-07-29T16:22:42;10.25;;;3.15;;
35899;SDS011;21998;44.112;12.318;2022-07-29T16:25:08;4.82;;;3.25;;
35899;SDS011;21998;44.112;12.318;2022-07-29T16:27:34;7.13;;;3.33;;
35899;SDS011;21998;44.112;12.318;2022-07-29T16:29:59;8.13;;;3.40;;
35899;SDS011;21998;44.112;12.318;2022-07-29T16:32:25;11.27;;;3.15;;
35899;SDS011;21998;44.112;12.318;2022-07-29T16:34:52;6.13;;;3.22;;
35899;SDS011;21998;44.112;12.318;2022-07-29T16:37:17;11.52;;;3.08;;
35899;SDS011;21998;44.112;12.318;2022-07-29T16:39:43;8.07;;;3.00;;
35899;SDS011;21998;44.112;12.318;2022-07-29T16:42:09;5.05;;;3.15;;
35899;SDS011;21998;44.112;12.318;2022-07-29T16:44:35;5.18;;;3.30;;
35899;SDS011;21998;44.112;12.318;2022-07-29T16:47:00;12.32;;;3.13;;
35899;SDS011;21998;44.112;12.318;2022-07-29T16:49:26;6.85;;;3.40;;
35899;SDS011;21998;44.112;12.318;2022-07-29T16:51:52;6.82;;;3.20;;
35899;SDS011;21998;44.112;12.318;2022-07-29T16:54:18;9.75;;;3.10;;
35899;SDS011;21998;44.112;12.318;2022-07-29T16:56:44;6.55;;;2.97;;
35899;SDS011;21998;44.112;12.318;2022-07-29T16:59:10;5.78;;;3.10;;
35899;SDS011;21998;44.112;12.318;2022-07-29T17:01:36;7.97;;;3.10;;
35899;SDS011;21998;44.112;12.318;2022-07-29T17:04:02;11.70;;;3.45;;
35899;SDS011;21998;44.112;12.318;2022-07-29T17:06:37;8.10;;;3.22;;
35899;SDS011;21998;44.112;12.318;2022-07-29T17:09:05;11.18;;;1.80;;
35899;SDS011;21998;44.112;12.318;2022-07-29T17:11:32;2.83;;;1.45;;
35899;SDS011;21998;44.112;12.318;2022-07-29T17:13:59;2.20;;;1.27;;
35899;SDS011;21998;44.112;12.318;2022-07-29T17:16:25;7.57;;;1.02;;
35899;SDS011;21998;44.112;12.318;2022-07-29T17:18:54;11.00;;;1.10;;
35899;SDS011;21998;44.112;12.318;2022-07-29T17:21:21;2.75;;;1.10;;
35899;SDS011;21998;44.112;12.318;2022-07-29T17:23:48;3.92;;;1.17;;
35899;SDS011;21998;44.112;12.318;2022-07-29T17:26:14;2.20;;;1.30;;
35899;SDS011;21998;44.112;12.318;2022-07-29T17:28:40;8.10;;;1.30;;
35899;SDS011;21998;44.112;12.318;2022-07-29T17:31:06;8.60;;;1.92;;
35899;SDS011;21998;44.112;12.318;2022-07-29T17:33:32;5.88;;;1.70;;
35899;SDS011;21998;44.112;12.318;2022-07-29T17:35:58;4.70;;;1.38;;
35899;SDS011;21998;44.112;12.318;2022-07-29T17:38:43;10.50;;;1.63;;
35899;SDS011;21998;44.112;12.318;2022-07-29T17:41:09;2.15;;;1.40;;
35899;SDS011;21998;44.112;12.318;2022-07-29T17:43:34;4.72;;;1.10;;
35899;SDS011;21998;44.112;12.318;2022-07-29T17:46:00;8.00;;;1.40;;
35899;SDS011;21998;44.112;12.318;2022-07-29T17:48:26;9.40;;;1.60;;
35899;SDS011;21998;44.112;12.318;2022-07-29T17:50:51;8.68;;;2.05;;
35899;SDS011;21998;44.112;12.318;2022-07-29T17:53:17;6.93;;;1.73;;
35899;SDS011;21998;44.112;12.318;2022-07-29T17:55:43;3.53;;;1.33;;
35899;SDS011;21998;44.112;12.318;2022-07-29T17:58:09;6.95;;;1.63;;
35899;SDS011;21998;44.112;12.318;2022-07-29T18:00:35;4.90;;;1.50;;
35899;SDS011;21998;44.112;12.318;2022-07-29T18:03:01;4.43;;;1.35;;
35899;SDS011;21998;44.112;12.318;2022-07-29T18:05:27;19.45;;;11.02;;
35899;SDS011;21998;44.112;12.318;2022-07-29T18:07:52;11.75;;;2.80;;
35899;SDS011;21998;44.112;12.318;2022-07-29T18:10:20;2.60;;;1.40;;
35899;SDS011;21998;44.112;12.318;2022-07-29T18:12:46;7.22;;;1.73;;
35899;SDS011;21998;44.112;12.318;2022-07-29T18:15:12;4.68;;;1.67;;
35899;SDS011;21998;44.112;12.318;2022-07-29T18:17:39;6.13;;;1.75;;
35899;SDS011;21998;44.112;12.318;2022-07-29T18:20:05;5.15;;;1.50;;
35899;SDS011;21998;44.112;12.318;2022-07-29T18:22:31;4.22;;;1.33;;
35899;SDS011;21998;44.112;12.318;2022-07-29T18:24:57;4.07;;;1.30;;
35899;SDS011;21998;44.112;12.318;2022-07-29T18:27:23;4.68;;;1.60;;
35899;SDS011;21998;44.112;12.318;2022-07-29T18:29:53;4.57;;;1.60;;
35899;SDS011;21998;44.112;12.318;2022-07-29T18:32:19;9.75;;;1.63;;
35899;SDS011;21998;44.112;12.318;2022-07-29T18:34:46;3.67;;;1.17;;
35899;SDS011;21998;44.112;12.318;2022-07-29T18:37:13;2.95;;;1.35;;
35899;SDS011;21998;44.112;12.318;2022-07-29T18:39:39;5.07;;;1.30;;
35899;SDS011;21998;44.112;12.318;2022-07-29T18:42:05;3.45;;;1.40;;
35899;SDS011;21998;44.112;12.318;2022-07-29T18:44:32;8.07;;;1.65;;
35899;SDS011;21998;44.112;12.318;2022-07-29T18:46:58;3.22;;;1.23;;
35899;SDS011;21998;44.112;12.318;2022-07-29T18:49:24;5.88;;;1.38;;
35899;SDS011;21998;44.112;12.318;2022-07-29T18:51:51;7.25;;;1.65;;
35899;SDS011;21998;44.112;12.318;2022-07-29T18:54:17;2.67;;;1.33;;
35899;SDS011;21998;44.112;12.318;2022-07-29T18:56:44;5.90;;;2.50;;
35899;SDS011;21998;44.112;12.318;2022-07-29T18:59:11;7.35;;;1.55;;
35899;SDS011;21998;44.112;12.318;2022-07-29T19:01:41;4.15;;;1.95;;
35899;SDS011;21998;44.112;12.318;2022-07-29T19:04:07;4.10;;;1.40;;
35899;SDS011;21998;44.112;12.318;2022-07-29T19:06:34;3.88;;;1.55;;
35899;SDS011;21998;44.112;12.318;2022-07-29T19:09:00;4.53;;;1.95;;
35899;SDS011;21998;44.112;12.318;2022-07-29T19:11:26;3.30;;;1.60;;
35899;SDS011;21998;44.112;12.318;2022-07-29T19:13:52;6.50;;;1.73;;
35899;SDS011;21998;44.112;12.318;2022-07-29T19:16:18;8.18;;;2.17;;
35899;SDS011;21998;44.112;12.318;2022-07-29T19:18:44;5.93;;;1.90;;
35899;SDS011;21998;44.112;12.318;2022-07-29T19:21:11;5.78;;;2.10;;
35899;SDS011;21998;44.112;12.318;2022-07-29T19:23:39;7.35;;;1.73;;
35899;SDS011;21998;44.112;12.318;2022-07-29T19:26:05;5.53;;;2.03;;
35899;SDS011;21998;44.112;12.318;2022-07-29T19:28:31;5.15;;;1.83;;
35899;SDS011;21998;44.112;12.318;2022-07-29T19:30:57;3.10;;;1.33;;
35899;SDS011;21998;44.112;12.318;2022-07-29T19:33:23;4.00;;;2.22;;
35899;SDS011;21998;44.112;12.318;2022-07-29T19:35:49;3.90;;;2.00;;
35899;SDS011;21998;44.112;12.318;2022-07-29T19:38:15;5.28;;;1.90;;
35899;SDS011;21998;44.112;12.318;2022-07-29T19:40:41;7.78;;;1.98;;
35899;SDS011;21998;44.112;12.318;2022-07-29T19:43:08;7.90;;;2.33;;
35899;SDS011;21998;44.112;12.318;2022-07-29T19:45:34;6.88;;;2.20;;
35899;SDS011;21998;44.112;12.318;2022-07-29T19:48:00;9.63;;;2.55;;
35899;SDS011;21998;44.112;12.318;2022-07-29T19:50:30;10.75;;;2.72;;
35899;SDS011;21998;44.112;12.318;2022-07-29T19:52:57;6.07;;;2.15;;
35899;SDS011;21998;44.112;12.318;2022-07-29T19:55:24;4.97;;;2.10;;
35899;SDS011;21998;44.112;12.318;2022-07-29T19:57:50;6.25;;;2.40;;
35899;SDS011;21998;44.112;12.318;2022-07-29T20:00:17;6.80;;;2.35;;
35899;SDS011;21998;44.112;12.318;2022-07-29T20:02:44;6.65;;;1.90;;
35899;SDS011;21998;44.112;12.318;2022-07-29T20:05:10;9.52;;;2.22;;
35899;SDS011;21998;44.112;12.318;2022-07-29T20:07:37;6.40;;;2.08;;
35899;SDS011;21998;44.112;12.318;2022-07-29T20:10:04;5.13;;;3.00;;
35899;SDS011;21998;44.112;12.318;2022-07-29T20:12:32;9.23;;;2.42;;
35899;SDS011;21998;44.112;12.318;2022-07-29T20:14:58;7.65;;;2.92;;
35899;SDS011;21998;44.112;12.318;2022-07-29T20:17:24;6.25;;;2.13;;
35899;SDS011;21998;44.112;12.318;2022-07-29T20:19:51;7.35;;;2.38;;
35899;SDS011;21998;44.112;12.318;2022-07-29T20:22:17;5.30;;;2.50;;
35899;SDS011;21998;44.112;12.318;2022-07-29T20:24:44;4.25;;;2.22;;
35899;SDS011;21998;44.112;12.318;2022-07-29T20:27:11;4.30;;;2.30;;
35899;SDS011;21998;44.112;12.318;2022-07-29T20:29:37;15.73;;;6.63;;
35899;SDS011;21998;44.112;12.318;2022-07-29T20:32:04;9.25;;;2.72;;
35899;SDS011;21998;44.112;12.318;2022-07-29T20:34:30;4.78;;;2.20;;
35899;SDS011;21998;44.112;12.318;2022-07-29T20:36:56;7.43;;;3.15;;
35899;SDS011;21998;44.112;12.318;2022-07-29T20:39:24;7.95;;;2.40;;
35899;SDS011;21998;44.112;12.318;2022-07-29T20:41:51;6.55;;;2.40;;
35899;SDS011;21998;44.112;12.318;2022-07-29T20:44:17;7.60;;;2.47;;
35899;SDS011;21998;44.112;12.318;2022-07-29T20:46:44;5.05;;;2.08;;
35899;SDS011;21998;44.112;12.318;2022-07-29T20:49:10;4.40;;;2.30;;
35899;SDS011;21998;44.112;12.318;2022-07-29T20:51:36;6.45;;;2.17;;
35899;SDS011;21998;44.112;12.318;2022-07-29T20:54:03;8.60;;;2.40;;
35899;SDS011;21998;44.112;12.318;2022-07-29T20:56:29;5.68;;;2.28;;
35899;SDS011;21998;44.112;12.318;2022-07-29T20:58:55;5.53;;;2.35;;
35899;SDS011;21998;44.112;12.318;2022-07-29T21:01:21;4.22;;;2.15;;
35899;SDS011;21998;44.112;12.318;2022-07-29T21:03:48;8.40;;;2.13;;
35899;SDS011;21998;44.112;12.318;2022-07-29T21:06:13;6.47;;;2.05;;
35899;SDS011;21998;44.112;12.318;2022-07-29T21:08:40;9.77;;;2.33;;
35899;SDS011;21998;44.112;12.318;2022-07-29T21:11:07;9.05;;;2.70;;
35899;SDS011;21998;44.112;12.318;2022-07-29T21:13:33;4.97;;;2.05;;
35899;SDS011;21998;44.112;12.318;2022-07-29T21:16:05;4.70;;;2.25;;
35899;SDS011;21998;44.112;12.318;2022-07-29T21:18:44;7.63;;;3.03;;
35899;SDS011;21998;44.112;12.318;2022-07-29T21:21:14;6.05;;;2.42;;
35899;SDS011;21998;44.112;12.318;2022-07-29T21:23:41;9.90;;;2.55;;
35899;SDS011;21998;44.112;12.318;2022-07-29T21:26:08;4.63;;;2.53;;
35899;SDS011;21998;44.112;12.318;2022-07-29T21:28:35;7.85;;;2.50;;
35899;SDS011;21998;44.112;12.318;2022-07-29T21:31:07;9.38;;;2.70;;
35899;SDS011;21998;44.112;12.318;2022-07-29T21:33:36;10.57;;;3.28;;
35899;SDS011;21998;44.112;12.318;2022-07-29T21:36:05;6.18;;;2.55;;
35899;SDS011;21998;44.112;12.318;2022-07-29T21:38:32;8.85;;;2.50;;
35899;SDS011;21998;44.112;12.318;2022-07-29T21:40:58;6.68;;;2.70;;
35899;SDS011;21998;44.112;12.318;2022-07-29T21:43:25;10.18;;;2.90;;
35899;SDS011;21998;44.112;12.318;2022-07-29T21:45:52;14.45;;;2.90;;
35899;SDS011;21998;44.112;12.318;2022-07-29T21:48:19;9.50;;;2.53;;
35899;SDS011;21998;44.112;12.318;2022-07-29T21:50:47;5.50;;;2.75;;
35899;SDS011;21998;44.112;12.318;2022-07-29T21:53:14;7.40;;;2.67;;
35899;SDS011;21998;44.112;12.318;2022-07-29T21:55:40;6.72;;;2.47;;
35899;SDS011;21998;44.112;12.318;2022-07-29T21:58:06;8.45;;;3.25;;
35899;SDS011;21998;44.112;12.318;2022-07-29T22:00:32;10.52;;;3.20;;
35899;SDS011;21998;44.112;12.318;2022-07-29T22:03:02;5.75;;;2.20;;
35899;SDS011;21998;44.112;12.318;2022-07-29T22:05:29;27.25;;;2.72;;
35899;SDS011;21998;44.112;12.318;2022-07-29T22:07:56;7.47;;;2.60;;
35899;SDS011;21998;44.112;12.318;2022-07-29T22:10:26;6.45;;;2.05;;
35899;SDS011;21998;44.112;12.318;2022-07-29T22:12:54;13.90;;;2.90;;
35899;SDS011;21998;44.112;12.318;2022-07-29T22:15:22;11.25;;;3.25;;
35899;SDS011;21998;44.112;12.318;2022-07-29T22:17:48;14.07;;;5.10;;
35899;SDS011;21998;44.112;12.318;2022-07-29T22:20:14;13.30;;;5.40;;
35899;SDS011;21998;44.112;12.318;2022-07-29T22:22:40;15.05;;;5.53;;
35899;SDS011;21998;44.112;12.318;2022-07-29T22:25:07;13.75;;;5.38;;
35899;SDS011;21998;44.112;12.318;2022-07-29T22:27:33;11.48;;;5.25;;
35899;SDS011;21998;44.112;12.318;2022-07-29T22:29:59;8.93;;;5.05;;
35899;SDS011;21998;44.112;12.318;2022-07-29T22:32:25;11.55;;;4.50;;
35899;SDS011;21998;44.112;12.318;2022-07-29T22:34:51;12.80;;;5.30;;
35899;SDS011;21998;44.112;12.318;2022-07-29T22:37:17;12.57;;;5.72;;
35899;SDS011;21998;44.112;12.318;2022-07-29T22:39:43;13.63;;;5.10;;
35899;SDS011;21998;44.112;12.318;2022-07-29T22:42:08;13.73;;;5.15;;
35899;SDS011;21998;44.112;12.318;2022-07-29T22:44:34;10.82;;;5.50;;
35899;SDS011;21998;44.112;12.318;2022-07-29T22:47:00;13.68;;;5.47;;
35899;SDS011;21998;44.112;12.318;2022-07-29T22:49:27;13.60;;;5.38;;
35899;SDS011;21998;44.112;12.318;2022-07-29T22:51:53;18.92;;;7.18;;
35899;SDS011;21998;44.112;12.318;2022-07-29T22:54:19;14.52;;;6.55;;
35899;SDS011;21998;44.112;12.318;2022-07-29T22:56:44;18.90;;;6.82;;
35899;SDS011;21998;44.112;12.318;2022-07-29T22:59:10;13.73;;;6.75;;
35899;SDS011;21998;44.112;12.318;2022-07-29T23:01:36;17.88;;;7.28;;
35899;SDS011;21998;44.112;12.318;2022-07-29T23:04:01;13.45;;;7.30;;
35899;SDS011;21998;44.112;12.318;2022-07-29T23:06:27;11.07;;;7.18;;
35899;SDS011;21998;44.112;12.318;2022-07-29T23:08:53;9.90;;;6.65;;
35899;SDS011;21998;44.112;12.318;2022-07-29T23:11:18;10.65;;;7.75;;
35899;SDS011;21998;44.112;12.318;2022-07-29T23:13:44;18.08;;;7.22;;
35899;SDS011;21998;44.112;12.318;2022-07-29T23:16:10;14.05;;;7.00;;
35899;SDS011;21998;44.112;12.318;2022-07-29T23:18:38;13.27;;;6.85;;
35899;SDS011;21998;44.112;12.318;2022-07-29T23:21:04;14.68;;;8.40;;